Time;durP1;ratioP1;P1;durP2;ratioP2;P2;SDS_P1;SDS_P2;PMS_P1;PMS_P2;Temp;Humidity;BMP_temperature;BMP_pressure;BME280_temperature;BME280_humidity;BME280_pressure;Samples;Min_cycle;Max_cycle;Signal;HPM_P1;HPM_P2
2022/05/27 00:00:54;;;;;;;0.50;0.30;;;14.50;99.90;;;;;;5095923;28;20932;-87
2022/05/27 00:03:22;;;;;;;0.50;0.50;;;14.50;99.90;;;;;;5096282;28;20463;-86
2022/05/27 00:05:52;;;;;;;0.30;0.30;;;14.50;99.90;;;;;;5096098;28;20451;-86
2022/05/27 00:08:19;;;;;;;0.43;0.40;;;14.50;99.90;;;;;;5096092;28;20455;-86
2022/05/27 00:10:46;;;;;;;0.40;0.40;;;14.40;99.90;;;;;;5096041;28;20479;-86
2022/05/27 00:13:13;;;;;;;0.50;0.50;;;14.40;99.90;;;;;;5095808;28;20455;-87
2022/05/27 00:15:40;;;;;;;0.40;0.40;;;14.40;99.90;;;;;;5096658;28;20452;-87
2022/05/27 00:18:07;;;;;;;0.40;0.40;;;14.30;99.90;;;;;;5095840;28;20447;-86
2022/05/27 00:20:37;;;;;;;0.30;0.30;;;14.30;99.90;;;;;;5095674;28;20444;-86
2022/05/27 00:23:04;;;;;;;0.30;0.30;;;14.20;99.90;;;;;;5095766;28;20459;-86
2022/05/27 00:25:31;;;;;;;0.50;0.30;;;14.10;99.90;;;;;;5095779;28;20532;-86
2022/05/27 00:27:59;;;;;;;1.13;0.40;;;14.10;99.90;;;;;;5095415;28;20437;-86
2022/05/27 00:30:26;;;;;;;0.30;0.30;;;14.00;99.90;;;;;;5095795;28;20511;-86
2022/05/27 00:32:54;;;;;;;0.40;0.40;;;14.00;99.90;;;;;;5095649;28;20491;-86
2022/05/27 00:35:21;;;;;;;0.40;0.40;;;13.90;99.90;;;;;;5095320;28;20436;-86
2022/05/27 00:37:49;;;;;;;0.50;0.40;;;13.90;99.90;;;;;;5095320;28;20448;-86
2022/05/27 00:40:16;;;;;;;0.70;0.40;;;13.90;99.90;;;;;;5095478;28;21203;-86
2022/05/27 00:42:45;;;;;;;0.40;0.40;;;13.80;99.90;;;;;;5095596;28;20479;-86
2022/05/27 00:45:16;;;;;;;0.40;0.40;;;13.80;99.90;;;;;;5095635;28;20440;-87
2022/05/27 00:47:44;;;;;;;0.40;0.30;;;13.80;99.90;;;;;;5095261;28;20809;-86
2022/05/27 00:50:15;;;;;;;0.50;0.50;;;13.80;99.90;;;;;;5095153;28;20487;-86
2022/05/27 00:52:44;;;;;;;0.40;0.40;;;13.80;99.90;;;;;;5094925;28;20471;-87
2022/05/27 00:55:17;;;;;;;0.50;0.43;;;13.80;99.90;;;;;;5095157;28;20451;-86
2022/05/27 00:57:47;;;;;;;2.20;0.40;;;13.80;99.90;;;;;;5095091;28;20872;-86
2022/05/27 01:00:19;;;;;;;0.50;0.50;;;13.80;99.90;;;;;;5095408;28;20432;-87
2022/05/27 01:02:46;;;;;;;0.30;0.30;;;13.80;99.90;;;;;;5095310;28;20467;-87
2022/05/27 01:05:15;;;;;;;0.50;0.40;;;13.80;99.90;;;;;;5094816;28;20447;-86
2022/05/27 01:07:42;;;;;;;0.30;0.30;;;13.80;99.90;;;;;;5094966;28;20444;-87
2022/05/27 01:10:13;;;;;;;0.37;0.37;;;13.80;99.90;;;;;;5094376;28;20487;-86
2022/05/27 01:13:00;;;;;;;0.67;0.37;;;13.80;99.90;;;;;;5094854;28;20967;-86
2022/05/27 01:15:36;;;;;;;0.40;0.30;;;13.80;99.90;;;;;;5094806;28;20456;-87
2022/05/27 01:20:18;;;;;;;0.73;0.60;;;13.70;99.90;;;;;;5094772;28;20498;-87
2022/05/27 01:21:19;;;;;;;0.30;0.30;;;13.70;99.90;;;;;;5094229;28;20474;-86
2022/05/27 01:24:17;;;;;;;0.40;0.30;;;13.70;99.90;;;;;;5094865;28;20419;-87
2022/05/27 01:27:25;;;;;;;0.57;0.57;;;13.70;99.90;;;;;;5095518;28;20761;-86
2022/05/27 01:30:25;;;;;;;0.67;0.67;;;13.60;99.90;;;;;;5094628;28;20421;-87
2022/05/27 01:33:12;;;;;;;0.50;0.30;;;13.50;99.90;;;;;;5094056;28;20447;-87
2022/05/27 01:35:45;;;;;;;0.40;0.40;;;13.50;99.90;;;;;;5094538;28;20440;-87
2022/05/27 01:38:18;;;;;;;0.40;0.30;;;13.50;99.90;;;;;;5094508;28;20439;-87
2022/05/27 01:40:53;;;;;;;0.50;0.40;;;13.40;99.90;;;;;;5094274;28;21001;-87
2022/05/27 01:43:24;;;;;;;0.50;0.50;;;13.30;99.90;;;;;;5094059;28;20475;-87
2022/05/27 01:45:57;;;;;;;0.53;0.53;;;13.30;99.90;;;;;;5094547;28;20448;-86
2022/05/27 01:48:29;;;;;;;0.40;0.40;;;13.20;99.90;;;;;;5094211;28;20443;-87
2022/05/27 01:51:02;;;;;;;0.70;0.40;;;13.30;99.90;;;;;;5094443;28;20494;-86
2022/05/27 01:53:34;;;;;;;0.47;0.30;;;13.20;99.90;;;;;;5094568;28;20801;-87
2022/05/27 01:56:09;;;;;;;0.40;0.30;;;13.20;99.90;;;;;;5095097;28;20428;-86
2022/05/27 01:58:40;;;;;;;0.80;0.40;;;13.20;99.90;;;;;;5098821;28;20435;-86
2022/05/27 02:01:16;;;;;;;0.30;0.30;;;13.30;99.90;;;;;;5112772;28;20417;-86
2022/05/27 02:03:48;;;;;;;1.03;0.40;;;13.30;99.90;;;;;;5111119;28;20414;-86
2022/05/27 02:06:20;;;;;;;0.60;0.60;;;13.30;99.90;;;;;;5095258;28;20432;-86
2022/05/27 02:08:52;;;;;;;0.97;0.50;;;13.30;99.90;;;;;;5094309;28;20432;-87
2022/05/27 02:11:22;;;;;;;0.50;0.50;;;13.30;99.90;;;;;;5094742;28;20459;-87
2022/05/27 02:14:06;;;;;;;0.63;0.63;;;13.30;99.90;;;;;;5093939;28;20452;-87
2022/05/27 02:16:37;;;;;;;0.43;0.43;;;13.30;99.90;;;;;;5093998;28;20966;-86
2022/05/27 02:19:09;;;;;;;0.57;0.57;;;13.30;99.90;;;;;;5093931;28;20432;-87
2022/05/27 02:21:41;;;;;;;1.00;0.60;;;13.30;99.90;;;;;;5093823;28;20456;-87
2022/05/27 02:24:12;;;;;;;0.83;0.63;;;13.30;99.90;;;;;;5093987;28;20428;-87
2022/05/27 02:26:43;;;;;;;0.50;0.50;;;13.20;99.90;;;;;;5093993;28;20432;-87
2022/05/27 02:29:13;;;;;;;0.47;0.40;;;13.20;99.90;;;;;;5093895;28;20440;-87
2022/05/27 02:31:46;;;;;;;0.30;0.30;;;13.20;99.90;;;;;;5094048;28;20468;-87
2022/05/27 02:37:06;;;;;;;0.30;0.30;;;13.20;99.90;;;;;;5093722;28;20496;-87
2022/05/27 02:39:34;;;;;;;0.60;0.33;;;13.10;99.90;;;;;;5093714;28;20443;-87
2022/05/27 02:42:09;;;;;;;0.40;0.40;;;13.00;99.90;;;;;;5093124;28;20480;-87
2022/05/27 02:44:47;;;;;;;0.30;0.30;;;13.00;99.90;;;;;;5096762;28;20435;-87
2022/05/27 02:47:24;;;;;;;1.23;0.50;;;13.00;99.90;;;;;;5097650;28;20419;-87
2022/05/27 02:50:01;;;;;;;0.40;0.40;;;12.90;99.90;;;;;;5098205;28;20450;-87
2022/05/27 02:52:36;;;;;;;0.90;0.50;;;12.90;99.90;;;;;;5097191;28;20504;-87
2022/05/27 02:55:12;;;;;;;0.40;0.40;;;12.90;99.90;;;;;;5097766;28;20455;-87
2022/05/27 02:57:42;;;;;;;1.47;0.40;;;12.90;99.90;;;;;;5097698;28;20420;-87
2022/05/27 03:00:12;;;;;;;0.40;0.30;;;12.80;99.90;;;;;;5097150;28;20436;-87
2022/05/27 03:02:40;;;;;;;0.40;0.40;;;12.90;99.90;;;;;;5097344;28;20456;-87
2022/05/27 03:05:08;;;;;;;0.50;0.40;;;12.80;99.90;;;;;;5097478;28;20452;-87
2022/05/27 03:07:57;;;;;;;0.60;0.40;;;12.80;99.90;;;;;;5097129;28;20440;-87
2022/05/27 03:10:33;;;;;;;0.50;0.50;;;12.80;99.90;;;;;;5097022;28;20416;-87
2022/05/27 03:13:26;;;;;;;0.40;0.40;;;12.70;99.90;;;;;;5097224;28;20470;-87
2022/05/27 03:16:04;;;;;;;0.40;0.30;;;12.70;99.90;;;;;;5097293;28;20412;-87
2022/05/27 03:18:40;;;;;;;0.40;0.30;;;12.70;99.90;;;;;;5097172;28;20434;-87
2022/05/27 03:21:13;;;;;;;0.50;0.50;;;12.70;99.90;;;;;;5096695;28;20926;-87
2022/05/27 03:23:54;;;;;;;0.40;0.40;;;12.60;99.90;;;;;;5097002;28;20442;-87
2022/05/27 03:26:31;;;;;;;0.50;0.30;;;12.60;99.90;;;;;;5096964;28;20457;-87
2022/05/27 03:29:10;;;;;;;0.50;0.50;;;12.60;99.90;;;;;;5097162;28;20442;-87
2022/05/27 03:31:42;;;;;;;0.30;0.30;;;12.60;99.90;;;;;;5097046;28;20506;-87
2022/05/27 03:34:19;;;;;;;0.50;0.30;;;12.60;99.90;;;;;;5096591;28;20437;-87
2022/05/27 03:36:54;;;;;;;0.40;0.40;;;12.50;99.90;;;;;;5096521;28;20408;-87
2022/05/27 03:39:29;;;;;;;0.40;0.40;;;12.60;99.90;;;;;;5096787;28;20796;-87
2022/05/27 03:42:01;;;;;;;0.80;0.50;;;12.60;99.90;;;;;;5096350;28;20479;-87
2022/05/27 03:44:28;;;;;;;0.90;0.60;;;12.70;99.90;;;;;;5096659;28;20409;-87
2022/05/27 03:46:57;;;;;;;0.87;0.40;;;12.70;99.90;;;;;;5096493;28;20791;-87
2022/05/27 03:49:25;;;;;;;0.30;0.30;;;12.70;99.90;;;;;;5096541;28;20471;-87
2022/05/27 03:51:57;;;;;;;0.50;0.50;;;12.70;99.90;;;;;;5096303;28;20476;-87
2022/05/27 03:54:23;;;;;;;0.40;0.37;;;12.80;99.90;;;;;;5096025;28;20433;-87
2022/05/27 03:56:50;;;;;;;0.40;0.40;;;12.90;99.90;;;;;;5096532;28;20447;-87
2022/05/27 03:59:19;;;;;;;0.40;0.33;;;12.90;99.90;;;;;;5096527;28;20428;-87
2022/05/27 04:01:48;;;;;;;0.40;0.40;;;12.90;99.90;;;;;;5096398;28;20471;-87
2022/05/27 04:04:18;;;;;;;0.40;0.40;;;12.90;99.90;;;;;;5095982;28;20955;-87
2022/05/27 04:06:47;;;;;;;0.33;0.30;;;12.80;99.90;;;;;;5096008;28;20453;-87
2022/05/27 04:09:15;;;;;;;0.43;0.43;;;12.90;99.90;;;;;;5095870;28;20497;-85
2022/05/27 04:11:42;;;;;;;0.40;0.40;;;12.90;99.90;;;;;;5095571;28;20495;-85
2022/05/27 04:14:08;;;;;;;0.40;0.40;;;13.00;99.90;;;;;;5095686;28;20822;-85
2022/05/27 04:16:35;;;;;;;0.50;0.30;;;13.00;99.90;;;;;;5095995;28;20455;-85
2022/05/27 04:19:02;;;;;;;0.50;0.50;;;12.90;99.90;;;;;;5095436;28;20935;-85
2022/05/27 04:21:29;;;;;;;1.07;0.50;;;13.00;99.90;;;;;;5095784;28;20460;-85
2022/05/27 04:23:59;;;;;;;0.50;0.40;;;13.00;99.90;;;;;;5095416;28;20458;-85
2022/05/27 04:26:27;;;;;;;0.40;0.40;;;13.10;99.90;;;;;;5095242;28;20477;-85
2022/05/27 04:28:53;;;;;;;0.40;0.30;;;13.20;99.90;;;;;;5095297;28;20466;-85
2022/05/27 04:31:20;;;;;;;0.50;0.50;;;13.20;99.90;;;;;;5095025;28;20521;-85
2022/05/27 04:33:48;;;;;;;0.40;0.40;;;13.20;99.90;;;;;;5100811;28;20448;-85
2022/05/27 04:36:15;;;;;;;0.40;0.40;;;13.20;99.90;;;;;;5104500;28;20452;-84
2022/05/27 04:38:42;;;;;;;0.40;0.40;;;13.20;99.90;;;;;;5105481;28;20468;-85
2022/05/27 04:41:10;;;;;;;0.50;0.40;;;13.20;99.90;;;;;;5101216;28;20475;-85
2022/05/27 04:43:37;;;;;;;0.93;0.50;;;13.20;99.90;;;;;;5094884;28;20443;-85
2022/05/27 04:46:04;;;;;;;0.37;0.30;;;13.20;99.90;;;;;;5095334;28;20452;-85
2022/05/27 04:48:31;;;;;;;0.43;0.40;;;13.20;99.90;;;;;;5095002;28;20455;-85
2022/05/27 04:50:59;;;;;;;0.40;0.33;;;13.20;99.90;;;;;;5094618;28;20958;-85
2022/05/27 04:53:25;;;;;;;0.40;0.40;;;13.10;99.90;;;;;;5094612;28;20983;-84
2022/05/27 04:55:52;;;;;;;0.40;0.30;;;13.20;99.90;;;;;;5094522;28;20436;-84
2022/05/27 04:58:20;;;;;;;0.43;0.43;;;13.20;99.90;;;;;;5094494;28;20432;-84
2022/05/27 05:00:48;;;;;;;2.87;0.60;;;13.30;99.90;;;;;;5094827;28;20829;-85
2022/05/27 05:03:15;;;;;;;0.70;0.70;;;13.50;99.90;;;;;;5094731;28;20475;-85
2022/05/27 05:05:42;;;;;;;0.40;0.30;;;13.60;99.90;;;;;;5093996;28;20448;-85
2022/05/27 05:08:17;;;;;;;0.87;0.60;;;13.70;99.90;;;;;;5094370;28;20958;-85
2022/05/27 05:10:44;;;;;;;0.40;0.40;;;13.80;99.90;;;;;;5094471;28;20416;-85
2022/05/27 05:13:11;;;;;;;0.40;0.40;;;13.80;99.90;;;;;;5094348;28;20491;-84
2022/05/27 05:15:39;;;;;;;0.50;0.47;;;13.90;99.90;;;;;;5094510;28;20444;-85
2022/05/27 05:18:07;;;;;;;0.40;0.40;;;13.90;99.90;;;;;;5094150;28;20950;-83
2022/05/27 05:20:34;;;;;;;0.70;0.57;;;13.90;99.90;;;;;;5094479;28;20447;-83
2022/05/27 05:23:01;;;;;;;1.07;0.70;;;14.00;99.90;;;;;;5094230;28;20460;-83
2022/05/27 05:25:28;;;;;;;0.60;0.40;;;14.10;99.90;;;;;;5093874;28;20953;-83
2022/05/27 05:27:55;;;;;;;0.50;0.50;;;14.10;99.90;;;;;;5094272;28;20432;-83
2022/05/27 05:30:25;;;;;;;1.07;0.67;;;14.20;99.90;;;;;;5093745;28;20837;-83
2022/05/27 05:32:53;;;;;;;0.30;0.30;;;14.30;99.90;;;;;;5093999;28;20491;-83
2022/05/27 05:35:21;;;;;;;4.87;0.87;;;14.40;99.90;;;;;;5093714;28;20448;-83
2022/05/27 05:37:48;;;;;;;0.50;0.40;;;14.40;99.90;;;;;;5094669;28;20862;-83
2022/05/27 05:40:15;;;;;;;0.40;0.40;;;14.40;99.90;;;;;;5094166;28;20452;-83
2022/05/27 05:42:43;;;;;;;0.57;0.30;;;14.40;99.90;;;;;;5093620;28;20979;-83
2022/05/27 05:45:13;;;;;;;0.40;0.40;;;14.40;99.90;;;;;;5093690;28;20432;-82
2022/05/27 05:47:39;;;;;;;0.80;0.40;;;14.40;99.90;;;;;;5093876;28;20440;-83
2022/05/27 05:50:09;;;;;;;0.50;0.40;;;14.40;99.90;;;;;;5093433;28;20962;-83
2022/05/27 05:52:35;;;;;;;0.30;0.30;;;14.40;99.90;;;;;;5093438;28;20483;-83
2022/05/27 05:55:03;;;;;;;0.50;0.40;;;14.40;99.90;;;;;;5093710;28;20798;-83
2022/05/27 05:57:30;;;;;;;0.37;0.37;;;14.50;99.90;;;;;;5093687;28;20437;-83
2022/05/27 05:59:59;;;;;;;0.30;0.30;;;14.50;99.90;;;;;;5093418;28;20444;-83
2022/05/27 06:02:26;;;;;;;0.40;0.40;;;14.50;99.90;;;;;;5093860;28;20457;-83
2022/05/27 06:04:53;;;;;;;1.93;0.50;;;14.50;99.90;;;;;;5094420;28;20458;-83
2022/05/27 06:07:21;;;;;;;0.50;0.50;;;14.60;99.90;;;;;;5093604;28;20448;-83
2022/05/27 06:09:48;;;;;;;0.73;0.73;;;14.60;99.90;;;;;;5093291;28;20886;-83
2022/05/27 06:12:16;;;;;;;0.60;0.40;;;14.60;99.90;;;;;;5093413;28;20484;-83
2022/05/27 06:14:43;;;;;;;0.40;0.30;;;14.60;99.90;;;;;;5094642;28;20452;-83
2022/05/27 06:17:10;;;;;;;0.40;0.40;;;14.60;99.90;;;;;;5093473;28;20436;-84
2022/05/27 06:19:37;;;;;;;0.43;0.40;;;14.60;99.90;;;;;;5093636;28;20455;-84
2022/05/27 06:22:04;;;;;;;0.40;0.30;;;14.60;99.90;;;;;;5093663;28;20467;-89
2022/05/27 06:24:32;;;;;;;0.47;0.43;;;14.70;99.90;;;;;;5093641;28;20448;-82
2022/05/27 06:27:00;;;;;;;0.87;0.40;;;14.80;99.90;;;;;;5093254;28;20520;-82
2022/05/27 06:34:56;;;;;;;0.77;0.60;;;14.90;99.90;;;;;;5093355;28;20392;-83
2022/05/27 06:37:22;;;;;;;1.30;0.40;;;15.00;99.90;;;;;;5092887;28;20448;-83
2022/05/27 06:39:51;;;;;;;0.40;0.40;;;15.00;99.90;;;;;;5093393;28;20447;-83
2022/05/27 06:42:18;;;;;;;0.40;0.40;;;15.00;99.90;;;;;;5092894;28;20486;-82
2022/05/27 06:44:45;;;;;;;0.60;0.50;;;15.10;99.90;;;;;;5093276;28;20452;-83
2022/05/27 06:47:13;;;;;;;1.20;0.53;;;15.20;99.90;;;;;;5093266;28;20465;-83
2022/05/27 06:49:43;;;;;;;0.40;0.30;;;15.30;99.90;;;;;;5093584;28;20436;-84
2022/05/27 06:52:10;;;;;;;0.50;0.47;;;15.40;99.90;;;;;;5092899;28;20476;-83
2022/05/27 06:54:38;;;;;;;0.40;0.40;;;15.50;99.90;;;;;;5093125;28;20448;-81
2022/05/27 06:57:06;;;;;;;0.50;0.43;;;15.60;99.90;;;;;;5092844;28;20432;-81
2022/05/27 06:59:34;;;;;;;0.40;0.40;;;15.50;99.90;;;;;;5093221;28;20454;-83
2022/05/27 07:02:01;;;;;;;0.70;0.50;;;15.60;99.90;;;;;;5093078;28;20472;-82
2022/05/27 07:04:28;;;;;;;0.50;0.47;;;15.70;99.90;;;;;;5093065;28;20444;-82
2022/05/27 07:06:57;;;;;;;0.87;0.57;;;15.80;99.90;;;;;;5093132;28;20443;-82
2022/05/27 07:09:25;;;;;;;0.60;0.40;;;15.80;99.90;;;;;;5092995;28;20436;-81
2022/05/27 07:11:56;;;;;;;0.70;0.30;;;15.80;99.90;;;;;;5092540;28;20989;-81
2022/05/27 07:14:24;;;;;;;0.60;0.60;;;15.70;99.90;;;;;;5093076;28;20481;-83
2022/05/27 07:16:51;;;;;;;0.50;0.40;;;15.60;99.90;;;;;;5093115;28;20479;-83
2022/05/27 07:19:19;;;;;;;0.50;0.40;;;15.60;99.90;;;;;;5093301;28;20432;-83
2022/05/27 07:21:47;;;;;;;0.70;0.70;;;15.60;99.90;;;;;;5092851;28;20464;-84
2022/05/27 07:24:16;;;;;;;0.60;0.60;;;15.60;99.90;;;;;;5093121;28;20428;-83
2022/05/27 07:26:44;;;;;;;0.53;0.53;;;15.60;99.90;;;;;;5092746;28;20447;-83
2022/05/27 07:29:11;;;;;;;0.80;0.50;;;15.60;99.90;;;;;;5093364;28;20451;-83
2022/05/27 07:31:41;;;;;;;0.77;0.50;;;15.70;99.90;;;;;;5096379;28;20467;-83
2022/05/27 07:34:08;;;;;;;0.83;0.30;;;15.70;99.90;;;;;;5097242;28;20472;-83
2022/05/27 07:36:35;;;;;;;0.87;0.50;;;15.80;99.90;;;;;;5096110;28;20436;-83
2022/05/27 07:39:02;;;;;;;0.50;0.50;;;16.10;99.90;;;;;;5096106;28;20451;-84
2022/05/27 07:41:29;;;;;;;0.70;0.47;;;16.40;99.90;;;;;;5095829;28;20475;-83
2022/05/27 07:43:59;;;;;;;0.40;0.40;;;16.60;99.90;;;;;;5096183;28;20436;-83
2022/05/27 07:46:26;;;;;;;0.40;0.40;;;16.70;99.90;;;;;;5096166;28;20436;-83
2022/05/27 07:48:55;;;;;;;0.57;0.50;;;16.70;99.90;;;;;;5096161;28;20437;-83
2022/05/27 07:51:22;;;;;;;0.50;0.50;;;16.60;99.90;;;;;;5095752;28;20513;-83
2022/05/27 07:53:49;;;;;;;1.03;0.50;;;16.50;99.90;;;;;;5095775;28;20847;-83
2022/05/27 07:56:16;;;;;;;0.50;0.50;;;16.40;99.90;;;;;;5095755;28;20954;-83
2022/05/27 07:58:43;;;;;;;0.60;0.50;;;16.30;99.90;;;;;;5095900;28;20432;-83
2022/05/27 08:01:09;;;;;;;1.27;0.80;;;16.30;99.90;;;;;;5095831;28;20455;-83
2022/05/27 08:03:36;;;;;;;1.33;0.60;;;16.20;99.90;;;;;;5095785;28;20444;-83
2022/05/27 08:06:04;;;;;;;0.70;0.57;;;16.20;99.90;;;;;;5095499;28;20456;-83
2022/05/27 08:08:31;;;;;;;1.10;0.90;;;16.20;99.90;;;;;;5095684;28;20424;-83
2022/05/27 08:10:58;;;;;;;0.50;0.43;;;16.10;99.90;;;;;;5095829;28;20428;-83
2022/05/27 08:13:26;;;;;;;0.50;0.50;;;16.10;99.90;;;;;;5095599;28;20494;-83
2022/05/27 08:15:53;;;;;;;0.40;0.37;;;16.10;99.90;;;;;;5095758;28;20444;-84
2022/05/27 08:18:21;;;;;;;1.80;0.40;;;16.00;99.90;;;;;;5095701;28;20515;-84
2022/05/27 08:20:48;;;;;;;0.40;0.40;;;16.00;99.90;;;;;;5095262;28;20440;-83
2022/05/27 08:23:16;;;;;;;1.23;0.50;;;16.00;99.90;;;;;;5095076;28;20846;-83
2022/05/27 08:25:44;;;;;;;0.50;0.50;;;16.00;99.90;;;;;;5095560;28;20531;-83
2022/05/27 08:28:11;;;;;;;0.80;0.40;;;16.10;99.90;;;;;;5095061;28;20939;-83
2022/05/27 08:30:40;;;;;;;0.60;0.40;;;16.40;99.90;;;;;;5095197;28;20452;-83
2022/05/27 08:33:07;;;;;;;0.50;0.50;;;16.70;99.90;;;;;;5094926;28;20491;-83
2022/05/27 08:38:23;;;;;;;1.00;0.50;;;16.80;99.90;;;;;;5095324;28;20403;-83
2022/05/27 08:41:15;;;;;;;1.20;0.80;;;16.70;99.90;;;;;;5094488;28;20476;-82
2022/05/27 08:43:55;;;;;;;0.43;0.43;;;16.60;99.90;;;;;;5081332;28;20464;-82
2022/05/27 08:46:31;;;;;;;0.53;0.50;;;16.50;99.90;;;;;;5094940;28;20424;-83
2022/05/27 08:49:01;;;;;;;0.83;0.50;;;16.50;99.90;;;;;;5095232;28;20766;-83
2022/05/27 08:51:32;;;;;;;0.80;0.57;;;16.40;99.90;;;;;;5094911;28;20543;-83
2022/05/27 08:54:06;;;;;;;1.63;0.50;;;16.40;99.90;;;;;;5095121;28;20460;-84
2022/05/27 08:59:30;;;;;;;0.60;0.50;;;16.30;99.90;;;;;;5094899;28;20868;-84
2022/05/27 09:02:03;;;;;;;0.80;0.40;;;16.30;99.90;;;;;;5094776;28;20517;-84
2022/05/27 09:04:35;;;;;;;0.60;0.57;;;16.40;99.90;;;;;;5094832;28;20471;-84
2022/05/27 09:07:15;;;;;;;0.50;0.50;;;16.40;99.90;;;;;;5094449;28;20773;-83
2022/05/27 09:09:43;;;;;;;1.73;0.60;;;16.40;99.90;;;;;;5094399;28;20416;-84
2022/05/27 09:12:24;;;;;;;0.80;0.80;;;16.70;99.90;;;;;;5094571;28;20475;-82
2022/05/27 09:14:59;;;;;;;0.40;0.33;;;17.10;99.90;;;;;;5094492;28;20448;-84
2022/05/27 09:17:31;;;;;;;0.53;0.53;;;17.70;99.90;;;;;;5094259;28;20413;-85
2022/05/27 09:20:07;;;;;;;2.70;0.40;;;18.30;99.90;;;;;;5094460;28;20415;-85
2022/05/27 09:22:49;;;;;;;0.90;0.50;;;18.50;99.90;;;;;;5094517;28;20473;-84
2022/05/27 09:25:23;;;;;;;0.40;0.40;;;18.60;99.90;;;;;;5094458;28;20474;-84
2022/05/27 09:28:00;;;;;;;0.40;0.40;;;18.60;99.90;;;;;;5094231;28;20432;-84
2022/05/27 09:30:27;;;;;;;0.63;0.63;;;18.80;99.90;;;;;;5094593;28;20921;-84
2022/05/27 09:32:57;;;;;;;0.50;0.50;;;18.80;99.90;;;;;;5094215;28;20472;-85
2022/05/27 09:35:29;;;;;;;0.50;0.50;;;18.90;99.90;;;;;;5094403;28;20451;-84
2022/05/27 09:38:01;;;;;;;0.63;0.60;;;19.20;99.90;;;;;;5094209;28;20420;-84
2022/05/27 09:40:35;;;;;;;0.60;0.40;;;19.40;99.90;;;;;;5094380;28;20491;-84
2022/05/27 09:43:10;;;;;;;0.50;0.50;;;19.70;99.90;;;;;;5094000;28;20556;-84
2022/05/27 09:45:37;;;;;;;0.43;0.40;;;19.70;99.90;;;;;;5094673;28;20785;-85
2022/05/27 09:48:06;;;;;;;0.60;0.43;;;19.70;99.90;;;;;;5093717;28;20943;-87
2022/05/27 09:50:38;;;;;;;0.40;0.40;;;19.80;99.90;;;;;;5094348;28;20443;-85
2022/05/27 09:53:06;;;;;;;1.73;0.43;;;20.00;99.90;;;;;;5093462;28;20970;-85
2022/05/27 09:55:41;;;;;;;0.80;0.50;;;20.10;99.90;;;;;;5093962;28;20436;-85
2022/05/27 09:58:09;;;;;;;0.57;0.47;;;19.80;99.90;;;;;;5096452;28;20420;-85
2022/05/27 10:00:42;;;;;;;0.90;0.50;;;19.70;99.90;;;;;;5099429;28;20423;-85
2022/05/27 10:03:28;;;;;;;0.40;0.40;;;19.50;99.90;;;;;;5100512;28;20466;-85
2022/05/27 10:05:58;;;;;;;0.67;0.60;;;19.30;99.90;;;;;;5100218;28;20426;-85
2022/05/27 10:08:35;;;;;;;0.50;0.50;;;19.20;99.90;;;;;;5094480;28;20808;-85
2022/05/27 10:11:22;;;;;;;1.07;0.70;;;19.10;99.90;;;;;;5093657;28;20432;-85
2022/05/27 10:13:50;;;;;;;0.50;0.50;;;19.10;99.90;;;;;;5093549;28;20475;-85
2022/05/27 10:16:24;;;;;;;0.47;0.47;;;19.20;99.90;;;;;;5093388;28;20440;-85
2022/05/27 10:19:07;;;;;;;0.40;0.40;;;19.40;99.90;;;;;;5093973;28;20452;-84
2022/05/27 10:21:47;;;;;;;0.40;0.40;;;19.80;99.90;;;;;;5093501;28;20447;-84
2022/05/27 10:24:18;;;;;;;0.70;0.50;;;20.30;99.90;;;;;;5093593;28;20791;-85
2022/05/27 10:26:46;;;;;;;1.70;0.50;;;20.50;99.90;;;;;;5094414;28;20435;-85
2022/05/27 10:29:14;;;;;;;0.43;0.43;;;20.40;99.90;;;;;;5093608;28;20440;-86
2022/05/27 10:31:51;;;;;;;1.60;0.50;;;20.50;99.90;;;;;;5093382;28;20474;-85
2022/05/27 10:34:40;;;;;;;0.53;0.53;;;20.50;99.90;;;;;;5093366;28;20467;-85
2022/05/27 10:37:15;;;;;;;0.40;0.40;;;20.60;99.90;;;;;;5093507;28;20794;-85
2022/05/27 10:39:53;;;;;;;0.40;0.40;;;20.70;99.90;;;;;;5093474;28;20874;-85
2022/05/27 10:42:32;;;;;;;0.43;0.43;;;20.90;99.90;;;;;;5092990;28;20996;-85
2022/05/27 10:45:16;;;;;;;0.70;0.70;;;20.90;99.90;;;;;;5093389;28;20423;-85
2022/05/27 10:48:13;;;;;;;0.50;0.40;;;20.90;99.90;;;;;;5092957;28;20799;-84
2022/05/27 10:50:48;;;;;;;0.50;0.40;;;21.00;99.90;;;;;;5092316;28;20458;-85
2022/05/27 10:53:30;;;;;;;0.60;0.50;;;21.10;99.90;;;;;;5093221;28;20482;-85
2022/05/27 10:56:08;;;;;;;0.70;0.50;;;21.20;99.90;;;;;;5093705;28;20779;-84
2022/05/27 11:02:07;;;;;;;0.43;0.43;;;21.40;99.90;;;;;;5093060;28;20983;-85
2022/05/27 11:05:14;;;;;;;0.53;0.53;;;21.50;99.90;;;;;;5094803;28;20431;-84
2022/05/27 11:07:54;;;;;;;0.67;0.40;;;21.20;99.90;;;;;;5097149;28;20423;-84
2022/05/27 11:10:32;;;;;;;0.90;0.50;;;21.10;99.90;;;;;;5096788;28;20880;-85
2022/05/27 11:16:07;;;;;;;0.80;0.60;;;20.70;99.90;;;;;;5097102;28;20898;-86
2022/05/27 11:18:48;;;;;;;0.37;0.37;;;20.50;99.90;;;;;;5097267;28;20407;-88
2022/05/27 11:21:29;;;;;;;0.40;0.40;;;20.20;99.90;;;;;;5097262;28;20523;-87
2022/05/27 11:24:25;;;;;;;1.10;0.50;;;20.00;99.90;;;;;;5097295;28;20424;-87
2022/05/27 11:27:02;;;;;;;1.27;0.50;;;19.80;99.90;;;;;;5097123;28;20575;-88
2022/05/27 11:29:47;;;;;;;0.50;0.40;;;19.70;99.90;;;;;;5096639;28;20431;-87
2022/05/27 11:32:28;;;;;;;0.40;0.40;;;19.60;99.90;;;;;;5096641;28;20470;-87
2022/05/27 11:35:03;;;;;;;0.50;0.50;;;19.40;99.90;;;;;;5096771;28;20474;-87
2022/05/27 11:37:50;;;;;;;0.70;0.40;;;19.30;99.90;;;;;;5096481;28;20404;-87
2022/05/27 11:40:25;;;;;;;0.50;0.50;;;19.30;99.90;;;;;;5096510;28;20491;-86
2022/05/27 11:43:38;;;;;;;0.40;0.40;;;19.20;99.90;;;;;;5096809;28;20486;-87
2022/05/27 11:46:29;;;;;;;0.80;0.60;;;19.30;99.90;;;;;;5096848;28;20453;-88
2022/05/27 11:49:10;;;;;;;0.40;0.40;;;19.10;99.90;;;;;;5097061;28;20428;-87
2022/05/27 11:51:46;;;;;;;0.40;0.40;;;19.10;99.90;;;;;;5096313;28;20456;-88
2022/05/27 11:54:26;;;;;;;0.40;0.40;;;19.10;99.90;;;;;;5096733;28;20468;-88
2022/05/27 11:57:06;;;;;;;0.50;0.50;;;19.10;99.90;;;;;;5096809;28;20443;-88
2022/05/27 11:59:37;;;;;;;0.50;0.50;;;19.00;99.90;;;;;;5096633;28;20788;-87
2022/05/27 12:02:15;;;;;;;0.40;0.30;;;18.90;99.90;;;;;;5096671;28;20467;-88
2022/05/27 12:04:49;;;;;;;4.40;0.47;;;19.00;99.90;;;;;;5096690;28;20428;-87
2022/05/27 12:07:23;;;;;;;0.57;0.57;;;19.00;99.90;;;;;;5096694;28;20797;-88
2022/05/27 12:09:55;;;;;;;0.40;0.40;;;19.20;99.90;;;;;;5096575;28;20602;-87
2022/05/27 12:12:25;;;;;;;0.47;0.47;;;19.30;99.90;;;;;;5096441;28;20479;-87
2022/05/27 12:14:58;;;;;;;0.43;0.40;;;19.40;99.90;;;;;;5096990;28;20463;-87
2022/05/27 12:17:36;;;;;;;0.40;0.40;;;19.60;99.90;;;;;;5096253;28;20424;-85
2022/05/27 12:20:05;;;;;;;0.43;0.40;;;19.70;99.90;;;;;;5095569;28;20937;-86
2022/05/27 12:22:35;;;;;;;0.40;0.40;;;19.80;99.90;;;;;;5095760;28;20507;-86
2022/05/27 12:25:05;;;;;;;1.40;0.53;;;19.90;99.90;;;;;;5096164;28;20479;-85
2022/05/27 12:27:34;;;;;;;0.40;0.40;;;20.00;99.90;;;;;;5095782;28;20544;-85
2022/05/27 12:30:01;;;;;;;5.70;0.60;;;20.20;99.90;;;;;;5095786;28;20451;-86
2022/05/27 12:32:29;;;;;;;0.40;0.30;;;20.30;99.90;;;;;;5095819;28;20456;-86
2022/05/27 12:35:26;;;;;;;0.60;0.33;;;20.20;99.90;;;;;;5095814;28;20475;-85
2022/05/27 12:37:59;;;;;;;0.50;0.50;;;20.30;99.90;;;;;;5102675;28;20464;-85
2022/05/27 12:40:33;;;;;;;0.50;0.40;;;20.30;99.90;;;;;;5111717;28;20467;-85
2022/05/27 12:43:10;;;;;;;0.43;0.43;;;20.30;99.90;;;;;;5112626;28;20467;-84
2022/05/27 12:45:47;;;;;;;0.50;0.50;;;20.50;99.90;;;;;;5114130;28;20431;-83
2022/05/27 12:48:29;;;;;;;1.97;0.57;;;20.50;99.90;;;;;;5095636;28;20899;-84
2022/05/27 12:50:59;;;;;;;0.67;0.63;;;20.40;99.90;;;;;;5094992;28;20419;-83
2022/05/27 12:53:45;;;;;;;0.60;0.50;;;20.10;99.90;;;;;;5094971;28;20479;-83
2022/05/27 13:02:48;;;;;;;0.50;0.47;;;19.90;99.90;;;;;;5094732;28;20438;-86
2022/05/27 13:05:17;;;;;;;0.50;0.40;;;19.80;99.90;;;;;;5095125;28;20440;-85
2022/05/27 13:07:52;;;;;;;0.87;0.50;;;19.70;99.90;;;;;;5094811;28;20432;-86
2022/05/27 13:10:50;;;;;;;0.40;0.40;;;19.70;99.90;;;;;;5094801;28;20432;-84
2022/05/27 13:13:25;;;;;;;0.50;0.50;;;19.80;99.90;;;;;;5091980;28;20511;-85
2022/05/27 13:16:03;;;;;;;0.40;0.40;;;19.90;99.90;;;;;;5094721;28;20493;-85
2022/05/27 13:18:39;;;;;;;0.43;0.43;;;20.00;99.90;;;;;;5094637;28;20436;-85
2022/05/27 13:21:13;;;;;;;0.47;0.40;;;20.20;99.90;;;;;;5094392;28;20438;-85
2022/05/27 13:23:58;;;;;;;0.50;0.50;;;20.30;99.90;;;;;;5094556;28;20431;-85
2022/05/27 13:26:38;;;;;;;2.97;0.60;;;20.50;99.90;;;;;;5093743;28;20431;-84
2022/05/27 13:29:24;;;;;;;0.50;0.50;;;20.60;99.90;;;;;;5095117;28;20439;-85
2022/05/27 13:31:55;;;;;;;0.40;0.40;;;20.60;99.90;;;;;;5094417;28;20467;-85
2022/05/27 13:34:30;;;;;;;0.40;0.40;;;20.50;99.90;;;;;;5093995;28;20463;-84
2022/05/27 13:37:00;;;;;;;0.40;0.33;;;20.30;99.90;;;;;;5094461;28;20430;-84
2022/05/27 13:39:35;;;;;;;1.13;0.60;;;20.30;99.90;;;;;;5093878;28;20435;-84
2022/05/27 13:42:03;;;;;;;0.50;0.47;;;20.40;99.90;;;;;;5093555;28;20483;-84